Time;durP1;ratioP1;P1;durP2;ratioP2;P2;SDS_P1;SDS_P2;PMS_P1;PMS_P2;Temp;Humidity;BMP_temperature;BMP_pressure;BME280_temperature;BME280_humidity;BME280_pressure;Samples;Min_cycle;Max_cycle;Signal;HPM_P1;HPM_P2
2023/03/17 00:01:55;;;;;;;8.93;4.87;;;;;;;4.90;40.15;99970.37;4270562;33;33993;-89
2023/03/17 00:04:24;;;;;;;10.43;4.57;;;;;;;4.86;40.31;99966.78;4271401;33;33342;-88
2023/03/17 00:06:52;;;;;;;11.43;4.95;;;;;;;4.81;40.33;99970.78;4270379;33;33780;-89
2023/03/17 00:09:21;;;;;;;8.43;4.62;;;;;;;5.02;39.97;99965.81;4271520;33;34901;-88
2023/03/17 00:11:49;;;;;;;8.40;4.18;;;;;;;5.02;40.12;99965.81;4269427;33;33808;-88
2023/03/17 00:14:18;;;;;;;8.55;4.62;;;;;;;4.79;40.67;99972.44;4271506;33;33490;-89
2023/03/17 00:16:50;;;;;;;11.12;5.10;;;;;;;4.86;39.99;99970.22;4270740;33;33795;-89
2023/03/17 00:19:32;;;;;;;9.98;4.53;;;;;;;4.83;39.92;99972.66;4272403;33;34003;-91
2023/03/17 00:22:01;;;;;;;7.72;4.18;;;;;;;4.86;40.11;99962.53;4270620;33;33592;-88
2023/03/17 00:24:29;;;;;;;10.43;4.57;;;;;;;4.82;40.02;99958.03;4270819;33;34532;-88
2023/03/17 00:26:57;;;;;;;10.23;5.53;;;;;;;4.85;40.19;99958.19;4271619;33;33971;-89
2023/03/17 00:29:25;;;;;;;8.52;4.45;;;;;;;4.65;40.62;99958.91;4270275;33;34718;-92
2023/03/17 00:31:55;;;;;;;9.48;4.18;;;;;;;4.68;40.32;99953.91;4271309;33;33851;-87
2023/03/17 00:34:23;;;;;;;9.48;4.70;;;;;;;4.81;40.56;99956.28;4263467;33;33193;-87
2023/03/17 00:36:52;;;;;;;9.60;4.43;;;;;;;4.81;40.56;99958.88;4271114;33;33961;-88
2023/03/17 00:39:24;;;;;;;10.18;5.05;;;;;;;4.75;40.37;99955.97;4271604;33;34307;-88
2023/03/17 00:41:53;;;;;;;8.88;4.53;;;;;;;4.70;40.68;99957.47;4268962;33;35481;-88
2023/03/17 00:44:21;;;;;;;10.77;4.57;;;;;;;4.64;40.30;99954.56;4270924;33;34670;-89
2023/03/17 00:46:48;;;;;;;8.38;4.78;;;;;;;4.67;40.53;99952.16;4271293;33;33902;-88
2023/03/17 00:49:20;;;;;;;9.63;4.30;;;;;;;4.72;40.44;99952.38;4283289;33;34311;-88
2023/03/17 00:51:48;;;;;;;7.87;4.22;;;;;;;4.61;40.90;99954.41;4271270;33;33632;-88
2023/03/17 00:54:18;;;;;;;9.73;4.68;;;;;;;4.61;41.11;99942.47;4272085;33;33415;-87
2023/03/17 00:56:46;;;;;;;10.20;4.05;;;;;;;4.58;41.11;99939.78;4286613;33;34027;-88
2023/03/17 00:59:23;;;;;;;10.05;4.72;;;;;;;4.69;40.42;99934.25;4273485;33;33844;-88
2023/03/17 01:01:50;;;;;;;9.27;4.45;;;;;;;4.52;40.79;99947.16;4276177;33;34025;-89
2023/03/17 01:04:21;;;;;;;9.65;4.62;;;;;;;4.60;40.45;99945.84;4289223;33;33570;-88
2023/03/17 01:06:49;;;;;;;10.38;4.43;;;;;;;4.67;41.03;99951.28;4277327;33;34641;-88
2023/03/17 01:09:19;;;;;;;9.20;4.60;;;;;;;4.68;40.40;99946.22;4277417;33;35028;-89
2023/03/17 01:11:47;;;;;;;12.30;4.65;;;;;;;4.72;40.07;99940.41;4276171;33;33909;-89
2023/03/17 01:14:15;;;;;;;8.88;5.00;;;;;;;4.62;40.45;99938.19;4283560;33;34979;-87
2023/03/17 01:16:43;;;;;;;10.05;4.72;;;;;;;4.63;40.48;99939.97;4276716;33;33978;-88
2023/03/17 01:19:11;;;;;;;12.93;5.37;;;;;;;4.45;41.14;99955.37;4289695;33;34876;-94
2023/03/17 01:21:39;;;;;;;11.82;4.40;;;;;;;4.52;40.95;99951.41;4277656;33;33820;-88
2023/03/17 01:24:08;;;;;;;10.70;5.20;;;;;;;4.58;40.72;99944.91;4275922;33;34138;-88
2023/03/17 01:26:36;;;;;;;11.18;5.30;;;;;;;4.57;40.70;99939.69;4290528;33;33299;-89
2023/03/17 01:29:05;;;;;;;11.50;4.40;;;;;;;4.47;40.82;99947.72;4276435;33;33519;-89
2023/03/17 01:31:33;;;;;;;9.02;4.87;;;;;;;4.47;40.85;99955.41;4275541;33;33674;-89
2023/03/17 01:34:01;;;;;;;11.18;5.18;;;;;;;4.39;41.48;99950.81;4290141;33;34368;-89
2023/03/17 01:36:29;;;;;;;11.32;5.05;;;;;;;4.61;40.84;99939.91;4289950;33;34624;-89
2023/03/17 01:38:57;;;;;;;10.10;5.30;;;;;;;4.64;40.52;99934.91;4291080;33;33828;-89
2023/03/17 01:41:25;;;;;;;10.38;4.93;;;;;;;4.50;40.88;99955.59;4290658;33;34792;-88
2023/03/17 01:43:53;;;;;;;10.20;5.40;;;;;;;4.36;41.28;99948.09;4290018;33;34212;-86
2023/03/17 01:46:30;;;;;;;10.98;5.37;;;;;;;4.50;41.06;99937.59;4275558;33;34026;-87
2023/03/17 01:49:18;;;;;;;9.75;5.22;;;;;;;4.62;41.07;99948.47;4280610;33;35035;-88
2023/03/17 01:52:06;;;;;;;10.48;5.15;;;;;;;4.54;41.08;99954.94;4276132;33;34076;-86
2023/03/17 01:54:57;;;;;;;11.30;5.40;;;;;;;4.44;41.07;99956.19;4276174;33;33670;-85
2023/03/17 01:57:31;;;;;;;10.75;5.82;;;;;;;4.44;41.12;99948.47;4289518;33;34676;-86
2023/03/17 02:00:07;;;;;;;9.50;5.18;;;;;;;4.56;40.77;99938.78;4276733;33;35044;-86
2023/03/17 02:02:42;;;;;;;10.77;5.28;;;;;;;4.55;40.85;99923.34;4288366;33;33794;-86
2023/03/17 02:05:12;;;;;;;10.05;4.80;;;;;;;4.61;40.71;99928.75;4276852;33;33570;-86
2023/03/17 02:07:41;;;;;;;9.95;4.95;;;;;;;4.46;40.93;99930.56;4276725;33;32427;-86
2023/03/17 02:10:10;;;;;;;12.02;5.70;;;;;;;4.37;41.37;99937.00;4275565;33;34207;-87
2023/03/17 02:12:41;;;;;;;9.82;4.78;;;;;;;4.28;41.30;99951.06;4286437;33;33636;-86
2023/03/17 02:15:09;;;;;;;12.25;5.18;;;;;;;4.30;41.25;99949.47;4274207;33;33573;-90
2023/03/17 02:17:38;;;;;;;9.52;5.18;;;;;;;4.25;41.14;99963.75;4286504;33;34794;-86
2023/03/17 02:20:32;;;;;;;12.00;4.82;;;;;;;4.18;41.45;99969.38;4286253;33;34141;-86
2023/03/17 02:23:00;;;;;;;14.27;6.05;;;;;;;4.42;41.16;99972.28;4258665;33;34175;-87
2023/03/17 02:25:29;;;;;;;14.50;5.82;;;;;;;4.40;41.26;99977.38;4274158;33;33805;-85
2023/03/17 02:28:00;;;;;;;12.43;5.03;;;;;;;4.26;41.07;99979.22;4272754;33;34958;-86
2023/03/17 02:30:28;;;;;;;10.55;5.45;;;;;;;4.32;41.10;99983.81;4274141;33;35045;-86
2023/03/17 02:32:56;;;;;;;10.38;5.45;;;;;;;4.28;41.19;99987.91;4273063;33;34584;-86
2023/03/17 02:35:23;;;;;;;11.50;5.85;;;;;;;4.21;41.19;99993.53;4286877;33;33413;-86
2023/03/17 02:37:51;;;;;;;9.93;5.20;;;;;;;4.31;40.87;99982.03;4286709;33;34642;-86
2023/03/17 02:40:19;;;;;;;10.65;4.62;;;;;;;4.30;40.94;99988.84;4286455;33;34262;-87
2023/03/17 02:42:47;;;;;;;11.77;5.07;;;;;;;4.31;41.18;99990.59;4286180;33;33638;-85
2023/03/17 02:45:15;;;;;;;9.90;5.07;;;;;;;4.28;41.19;99993.03;4273480;33;33564;-87
2023/03/17 02:47:45;;;;;;;10.27;4.80;;;;;;;4.24;40.90;99982.50;4287391;33;33615;-86
2023/03/17 02:50:22;;;;;;;10.05;4.97;;;;;;;4.25;40.78;99979.16;4286723;33;35062;-85
2023/03/17 02:52:50;;;;;;;9.70;4.85;;;;;;;4.30;40.72;99973.44;4272829;33;34861;-87
2023/03/17 02:55:17;;;;;;;12.75;5.12;;;;;;;4.12;41.21;99969.94;4286743;33;33445;-87
2023/03/17 02:57:45;;;;;;;14.20;5.55;;;;;;;4.21;41.72;99980.69;4287238;33;34324;-85
2023/03/17 03:00:13;;;;;;;10.25;5.12;;;;;;;4.22;41.11;99976.44;4285725;33;35134;-86
2023/03/17 03:02:40;;;;;;;9.90;4.72;;;;;;;4.09;41.27;99975.81;4285457;33;33625;-85
2023/03/17 03:05:09;;;;;;;10.00;5.15;;;;;;;4.17;41.01;99971.06;4287330;33;33291;-89
2023/03/17 03:07:37;;;;;;;11.05;5.35;;;;;;;4.11;41.30;99983.59;4287138;33;33939;-86
2023/03/17 03:10:05;;;;;;;11.38;5.28;;;;;;;4.03;41.58;99979.75;4272580;33;34230;-86
2023/03/17 03:12:32;;;;;;;10.82;5.47;;;;;;;4.03;41.46;99979.75;4271556;33;33585;-85
2023/03/17 03:15:00;;;;;;;13.40;5.47;;;;;;;3.97;41.50;99987.09;4286137;33;33384;-86
2023/03/17 03:17:27;;;;;;;9.88;5.20;;;;;;;4.03;41.41;99982.31;4288571;33;34840;-85
2023/03/17 03:19:55;;;;;;;10.70;4.78;;;;;;;4.00;41.26;99974.44;4285433;33;34242;-86
2023/03/17 03:22:23;;;;;;;10.43;5.15;;;;;;;3.94;41.57;99969.91;4273255;33;33944;-91
2023/03/17 03:24:50;;;;;;;10.43;5.32;;;;;;;3.95;41.43;99963.06;4272721;33;33588;-90
2023/03/17 03:27:17;;;;;;;9.75;4.97;;;;;;;3.98;41.40;99970.91;4287151;33;34822;-88
2023/03/17 03:29:45;;;;;;;10.70;4.55;;;;;;;3.93;41.54;99964.66;4285742;33;33883;-87
2023/03/17 03:32:13;;;;;;;10.75;5.35;;;;;;;3.88;41.78;99970.44;4273992;33;33295;-89
2023/03/17 03:34:40;;;;;;;11.30;5.07;;;;;;;3.81;41.66;99972.59;4273043;33;32034;-89
2023/03/17 03:37:08;;;;;;;10.40;4.57;;;;;;;3.87;41.23;99972.94;4286167;33;33572;-89
2023/03/17 03:39:36;;;;;;;8.65;5.43;;;;;;;3.89;41.08;99966.19;4287025;33;34229;-88
2023/03/17 03:42:04;;;;;;;11.50;5.07;;;;;;;3.91;41.37;99967.16;4261362;33;33747;-88
2023/03/17 03:44:31;;;;;;;9.85;4.68;;;;;;;3.94;41.31;99969.91;4286726;33;33626;-89
2023/03/17 03:46:59;;;;;;;11.65;5.40;;;;;;;3.83;41.39;99969.34;4262424;33;33239;-91
2023/03/17 03:49:26;;;;;;;11.10;4.97;;;;;;;3.79;41.61;99967.41;4287043;33;33738;-88
2023/03/17 03:51:55;;;;;;;10.20;5.78;;;;;;;3.83;41.71;99976.16;4273121;33;32391;-92
2023/03/17 03:54:23;;;;;;;10.30;5.12;;;;;;;3.86;41.57;99960.91;4285594;33;33504;-89
2023/03/17 03:56:50;;;;;;;10.85;5.32;;;;;;;3.84;41.38;99965.09;4273856;33;33764;-88
2023/03/17 03:59:18;;;;;;;10.27;4.82;;;;;;;3.88;41.37;99957.63;4287014;33;33841;-88
2023/03/17 04:01:45;;;;;;;10.73;5.32;;;;;;;3.83;41.71;99955.63;4285790;33;33922;-88
2023/03/17 04:04:13;;;;;;;10.43;5.78;;;;;;;3.63;42.13;99967.38;4286577;33;33680;-89
2023/03/17 04:06:46;;;;;;;11.07;4.97;;;;;;;3.74;42.02;99963.69;4285101;33;34763;-87
2023/03/17 04:09:14;;;;;;;11.43;5.12;;;;;;;3.81;42.03;99959.78;4288816;33;34876;-87
2023/03/17 04:11:42;;;;;;;12.70;5.03;;;;;;;3.60;42.34;99954.44;4277338;33;33773;-89
2023/03/17 04:14:09;;;;;;;13.25;5.50;;;;;;;3.66;42.49;99957.28;4283205;33;33946;-86
2023/03/17 04:16:37;;;;;;;11.18;5.82;;;;;;;3.63;42.78;99958.00;4286898;33;33928;-86
2023/03/17 04:19:05;;;;;;;14.35;5.30;;;;;;;3.72;43.05;99955.06;4286604;33;33903;-87
2023/03/17 04:21:33;;;;;;;10.95;5.07;;;;;;;3.77;42.48;99948.47;4287048;33;34608;-87
2023/03/17 04:24:01;;;;;;;9.75;5.15;;;;;;;3.68;42.46;99958.28;4286521;33;33571;-89
2023/03/17 04:26:28;;;;;;;13.25;5.68;;;;;;;3.62;42.84;99956.25;4284871;33;33660;-86
2023/03/17 04:28:57;;;;;;;9.70;5.10;;;;;;;3.62;43.01;99957.94;4287072;33;34019;-87
2023/03/17 04:31:25;;;;;;;11.95;5.78;;;;;;;3.75;42.86;99962.94;4274211;33;34852;-91
2023/03/17 04:33:52;;;;;;;10.18;5.20;;;;;;;3.73;42.81;99961.06;4286346;33;34397;-87
2023/03/17 04:36:22;;;;;;;12.30;5.22;;;;;;;3.82;42.61;99956.41;4286654;33;34035;-87
2023/03/17 04:38:49;;;;;;;10.13;5.07;;;;;;;3.82;42.50;99958.97;4285782;33;35067;-87
2023/03/17 04:41:17;;;;;;;12.82;5.80;;;;;;;3.73;42.56;99967.06;4283973;33;33983;-87
2023/03/17 04:43:45;;;;;;;9.73;5.37;;;;;;;3.69;43.13;99966.84;4284879;33;33268;-87
2023/03/17 04:46:13;;;;;;;9.45;4.78;;;;;;;3.80;42.94;99968.28;4286265;33;34565;-91
2023/03/17 04:48:41;;;;;;;9.10;5.20;;;;;;;3.85;42.98;99967.72;4287178;33;34313;-86
2023/03/17 04:51:09;;;;;;;10.75;5.57;;;;;;;3.85;42.86;99962.59;4284533;33;34192;-87
2023/03/17 04:53:38;;;;;;;14.65;6.15;;;;;;;3.89;42.58;99969.63;4285790;33;33600;-89
2023/03/17 04:56:06;;;;;;;12.43;5.78;;;;;;;3.71;42.96;99970.34;4265708;33;33550;-92
2023/03/17 04:58:33;;;;;;;11.12;5.85;;;;;;;3.71;43.07;99978.91;4272373;33;34279;-89
2023/03/17 05:01:02;;;;;;;12.50;5.72;;;;;;;3.78;43.21;99978.44;4285369;33;33860;-88
2023/03/17 05:03:30;;;;;;;12.98;5.65;;;;;;;3.70;43.54;99982.28;4285931;33;34478;-89
2023/03/17 05:05:58;;;;;;;10.07;5.60;;;;;;;3.84;43.04;99977.91;4271771;33;32695;-87
2023/03/17 05:08:27;;;;;;;12.15;4.95;;;;;;;3.94;42.69;99971.56;4286654;33;34180;-87
2023/03/17 05:10:55;;;;;;;17.08;6.15;;;;;;;3.78;43.08;99981.00;4285171;33;34813;-85
2023/03/17 05:13:23;;;;;;;14.07;5.68;;;;;;;3.71;43.56;99984.06;4271110;33;34208;-87
2023/03/17 05:15:53;;;;;;;14.35;5.78;;;;;;;3.98;43.14;99982.06;4284579;33;34571;-88
2023/03/17 05:18:22;;;;;;;11.68;5.68;;;;;;;3.90;43.43;99985.91;4272350;33;34947;-91
2023/03/17 05:20:49;;;;;;;16.33;6.75;;;;;;;3.83;43.42;99984.72;4272367;33;34410;-91
2023/03/17 05:23:17;;;;;;;13.93;6.32;;;;;;;3.67;43.51;99984.69;4284545;33;32712;-87
2023/03/17 05:25:45;;;;;;;12.98;6.10;;;;;;;3.88;43.75;99993.53;4271502;33;33603;-91
2023/03/17 05:28:13;;;;;;;11.70;6.00;;;;;;;3.95;43.64;99986.16;4285800;33;33973;-85
2023/03/17 05:30:41;;;;;;;12.32;6.28;;;;;;;4.25;42.81;99982.59;4282455;33;33574;-88
2023/03/17 05:33:09;;;;;;;13.10;6.07;;;;;;;4.28;43.25;99989.56;4278102;33;34463;-87
2023/03/17 05:35:36;;;;;;;11.07;6.05;;;;;;;4.39;42.76;99988.41;4284209;33;33912;-88
2023/03/17 05:38:05;;;;;;;10.70;6.28;;;;;;;4.52;42.50;99989.94;4284407;33;34190;-88
2023/03/17 05:40:34;;;;;;;11.50;5.78;;;;;;;4.67;42.18;99995.84;4283654;33;34322;-88
2023/03/17 05:43:02;;;;;;;15.50;6.07;;;;;;;4.54;42.56;100001.16;4284258;33;33487;-87
2023/03/17 05:45:32;;;;;;;11.32;5.22;;;;;;;4.70;42.38;100003.69;4270533;33;33869;-86
2023/03/17 05:47:59;;;;;;;13.57;6.32;;;;;;;4.62;42.38;99990.47;4288631;33;34917;-86
2023/03/17 05:50:27;;;;;;;12.95;6.18;;;;;;;4.81;42.57;99976.84;4288137;33;34058;-88
2023/03/17 05:52:55;;;;;;;17.65;7.15;;;;;;;4.79;42.60;99983.56;4286400;33;34178;-93
2023/03/17 05:55:22;;;;;;;14.77;7.20;;;;;;;4.81;42.10;99971.72;4287181;33;33927;-86
2023/03/17 05:57:50;;;;;;;13.73;7.60;;;;;;;4.92;41.87;99973.88;4285551;33;34182;-86
2023/03/17 06:00:19;;;;;;;13.02;7.10;;;;;;;4.74;41.81;99984.19;4287470;33;34145;-87
2023/03/17 06:02:47;;;;;;;14.00;7.30;;;;;;;4.63;41.72;99986.22;4287275;33;33524;-87
2023/03/17 06:05:15;;;;;;;13.27;7.37;;;;;;;5.00;41.30;99976.03;4281549;33;33858;-86
2023/03/17 06:07:42;;;;;;;12.75;7.37;;;;;;;4.43;41.02;99987.75;4287377;33;34290;-86
2023/03/17 06:10:22;;;;;;;15.90;7.32;;;;;;;4.49;40.57;99982.06;4284588;33;34245;-87
2023/03/17 06:12:49;;;;;;;15.18;8.80;;;;;;;4.84;40.08;99976.97;4274909;33;33207;-87
2023/03/17 06:15:17;;;;;;;18.92;7.05;;;;;;;4.78;40.41;99976.69;4287706;33;33959;-88
2023/03/17 06:17:45;;;;;;;14.00;6.62;;;;;;;4.88;39.96;99984.00;4285511;33;35044;-89
2023/03/17 06:20:13;;;;;;;13.18;6.87;;;;;;;4.84;40.40;99987.25;4273559;33;34755;-89
2023/03/17 06:22:41;;;;;;;12.60;7.12;;;;;;;4.78;40.17;99998.94;4287904;33;34058;-87
2023/03/17 06:25:29;;;;;;;12.88;6.28;;;;;;;5.20;39.35;99992.41;4287451;33;33777;-88
2023/03/17 06:27:57;;;;;;;13.98;6.90;;;;;;;5.10;39.59;99995.34;4287793;33;34087;-88
2023/03/17 06:30:24;;;;;;;12.32;6.50;;;;;;;5.06;40.37;99993.44;4287889;33;34929;-87
2023/03/17 06:32:52;;;;;;;13.93;7.15;;;;;;;5.13;40.08;100001.50;4287716;33;33347;-91
2023/03/17 06:35:19;;;;;;;12.48;6.75;;;;;;;5.24;39.94;100004.59;4287047;33;34078;-87
2023/03/17 06:37:47;;;;;;;14.65;6.82;;;;;;;5.35;39.54;99999.97;4287939;33;33971;-87
2023/03/17 06:40:15;;;;;;;14.48;6.12;;;;;;;5.21;39.71;100003.56;4287580;33;33768;-87
2023/03/17 06:42:42;;;;;;;12.77;6.18;;;;;;;5.24;39.78;100009.72;4287985;33;33007;-89
2023/03/17 06:45:10;;;;;;;11.12;6.28;;;;;;;5.52;40.12;100001.59;4274791;33;33955;-86
2023/03/17 06:47:38;;;;;;;16.25;7.12;;;;;;;5.46;39.66;100006.47;4274099;33;32964;-88
2023/03/17 06:50:08;;;;;;;17.00;6.43;;;;;;;5.34;39.85;100005.88;4287435;33;32684;-87
2023/03/17 06:52:36;;;;;;;13.18;6.25;;;;;;;5.37;40.12;100004.34;4275003;33;34379;-88
2023/03/17 06:55:05;;;;;;;13.93;7.20;;;;;;;5.48;39.33;100015.12;4274631;33;34049;-88
2023/03/17 06:57:33;;;;;;;13.23;6.47;;;;;;;5.49;39.78;100021.16;4287728;33;35023;-88
2023/03/17 07:00:00;;;;;;;14.18;6.55;;;;;;;5.43;39.54;100011.47;4287547;33;33959;-88
2023/03/17 07:02:28;;;;;;;12.60;6.53;;;;;;;5.52;39.71;100011.88;4287486;33;33115;-88
2023/03/17 07:04:56;;;;;;;12.10;6.05;;;;;;;5.44;39.61;100014.91;4287448;33;34316;-87
2023/03/17 07:07:24;;;;;;;11.52;6.18;;;;;;;5.53;39.38;100013.69;4274708;33;33872;-88
2023/03/17 07:09:52;;;;;;;14.73;6.90;;;;;;;5.54;39.37;100028.28;4287690;33;33407;-88
2023/03/17 07:12:20;;;;;;;11.12;5.78;;;;;;;5.54;39.45;100020.56;4262878;33;34375;-88
2023/03/17 07:14:48;;;;;;;10.00;5.68;;;;;;;5.72;39.12;100030.84;4287567;33;34114;-88
2023/03/17 07:17:17;;;;;;;11.98;5.97;;;;;;;5.78;39.38;100033.66;4287054;33;34257;-87
2023/03/17 07:19:44;;;;;;;13.18;6.53;;;;;;;5.85;38.71;100030.56;4287518;33;34818;-88
2023/03/17 07:22:12;;;;;;;12.65;6.75;;;;;;;5.70;39.12;100032.44;4287312;33;33916;-88
2023/03/17 07:24:43;;;;;;;12.27;5.70;;;;;;;5.92;38.50;100034.34;4274594;33;34032;-88
2023/03/17 07:27:11;;;;;;;14.30;5.87;;;;;;;5.56;38.86;100036.94;4287606;33;34399;-88
2023/03/17 07:29:38;;;;;;;13.88;5.93;;;;;;;5.77;38.93;100038.75;4273439;33;34602;-86
2023/03/17 07:32:07;;;;;;;9.90;5.60;;;;;;;5.86;38.71;100034.88;4287581;33;33144;-90
2023/03/17 07:34:35;;;;;;;12.65;5.90;;;;;;;5.90;38.27;100038.50;4287888;33;33751;-88
2023/03/17 07:37:03;;;;;;;11.77;5.37;;;;;;;6.29;38.19;100039.44;4262599;33;33465;-88
2023/03/17 07:39:30;;;;;;;14.43;6.22;;;;;;;6.24;38.03;100043.47;4287597;33;33997;-88
2023/03/17 07:41:58;;;;;;;12.40;6.18;;;;;;;6.00;38.45;100050.13;4287791;33;33186;-88
2023/03/17 07:44:26;;;;;;;12.37;6.60;;;;;;;5.89;38.65;100048.72;4287390;33;33832;-88
2023/03/17 07:46:54;;;;;;;11.27;6.28;;;;;;;6.25;38.15;100045.25;4274126;33;32865;-89
2023/03/17 07:49:21;;;;;;;12.68;6.37;;;;;;;6.24;38.44;100050.31;4274302;33;33706;-88
2023/03/17 07:52:09;;;;;;;11.73;6.30;;;;;;;6.22;38.22;100050.28;4287645;33;33529;-88
2023/03/17 07:54:36;;;;;;;13.15;6.12;;;;;;;6.11;38.28;100050.63;4274506;33;34522;-89
2023/03/17 07:57:04;;;;;;;16.60;7.22;;;;;;;6.38;37.65;100048.38;4287356;33;35083;-89
2023/03/17 07:59:32;;;;;;;14.50;6.10;;;;;;;6.47;37.62;100049.63;4274196;33;34512;-88
2023/03/17 08:02:00;;;;;;;14.93;5.93;;;;;;;6.68;37.68;100047.09;4287038;33;34193;-88
2023/03/17 08:04:28;;;;;;;9.73;5.60;;;;;;;6.41;37.04;100046.81;4287454;33;35147;-89
2023/03/17 08:06:56;;;;;;;15.15;6.20;;;;;;;6.57;37.54;100048.34;4287408;33;34679;-88
2023/03/17 08:09:24;;;;;;;16.20;6.03;;;;;;;6.80;36.52;100042.47;4286333;33;34118;-88
2023/03/17 08:11:52;;;;;;;12.80;6.03;;;;;;;7.09;36.40;100040.22;4287264;33;33841;-89
2023/03/17 08:14:20;;;;;;;12.05;6.03;;;;;;;7.06;36.34;100050.37;4274310;33;34080;-89
2023/03/17 08:16:47;;;;;;;14.02;6.40;;;;;;;7.82;35.44;100036.16;4274071;33;34053;-89
2023/03/17 08:19:15;;;;;;;13.70;6.20;;;;;;;7.99;35.64;100040.22;4287327;33;34722;-88
2023/03/17 08:21:42;;;;;;;12.82;6.75;;;;;;;7.37;35.04;100038.72;4274180;33;34445;-88
2023/03/17 08:24:10;;;;;;;12.50;6.55;;;;;;;7.61;35.92;100031.91;4287098;33;34023;-88
2023/03/17 08:26:38;;;;;;;15.02;6.03;;;;;;;7.88;34.34;100031.19;4287283;33;33738;-89
2023/03/17 08:29:06;;;;;;;16.87;6.35;;;;;;;7.85;34.56;100029.41;4287280;33;34048;-88
2023/03/17 08:31:35;;;;;;;16.48;6.82;;;;;;;8.09;34.29;100031.13;4274112;33;32975;-89
2023/03/17 08:34:03;;;;;;;12.18;6.28;;;;;;;8.09;34.68;100031.13;4286926;33;33879;-89
2023/03/17 08:36:30;;;;;;;11.43;5.90;;;;;;;7.50;34.70;100034.13;4287326;33;33965;-88
2023/03/17 08:38:58;;;;;;;10.48;6.12;;;;;;;7.77;33.06;100023.97;4287284;33;33962;-89
2023/03/17 08:41:27;;;;;;;13.35;6.22;;;;;;;7.72;34.12;100028.03;4287241;33;33535;-88
2023/03/17 08:43:54;;;;;;;12.40;5.80;;;;;;;8.21;33.72;100036.72;4274052;33;34395;-89
2023/03/17 08:46:29;;;;;;;11.77;5.37;;;;;;;8.00;33.96;100035.12;4273884;33;34175;-89
2023/03/17 08:48:57;;;;;;;11.30;5.37;;;;;;;8.01;32.87;100033.44;4287087;33;34162;-87
2023/03/17 08:51:30;;;;;;;10.35;4.20;;;;;;;7.85;33.41;100026.81;4287128;33;34499;-91
2023/03/17 08:53:58;;;;;;;10.05;4.18;;;;;;;8.20;31.97;100032.41;4287379;33;33569;-89
2023/03/17 08:56:26;;;;;;;11.27;3.92;;;;;;;7.89;32.05;100020.06;4286988;33;34974;-89
2023/03/17 08:58:54;;;;;;;10.82;4.10;;;;;;;8.52;31.33;100033.56;4286450;33;34046;-88
2023/03/17 09:01:23;;;;;;;8.85;4.22;;;;;;;8.37;30.56;100027.81;4272641;33;34842;-88
2023/03/17 09:03:52;;;;;;;13.05;4.18;;;;;;;8.37;31.22;100032.97;4272562;33;34697;-89
2023/03/17 09:06:20;;;;;;;9.55;4.40;;;;;;;8.50;30.92;100036.09;4284226;33;34567;-90
2023/03/17 09:08:53;;;;;;;13.20;4.62;;;;;;;8.49;30.50;100029.19;4286804;33;33964;-89
2023/03/17 09:11:25;;;;;;;9.75;4.93;;;;;;;8.72;31.03;100032.56;4273515;33;32685;-89
2023/03/17 09:13:54;;;;;;;12.75;5.10;;;;;;;8.48;31.14;100029.09;4273486;33;33692;-89
2023/03/17 09:16:22;;;;;;;11.45;4.47;;;;;;;8.56;31.42;100027.69;4273692;33;35026;-89
2023/03/17 09:18:50;;;;;;;9.55;4.25;;;;;;;9.18;30.50;100021.13;4262031;33;34444;-89
2023/03/17 09:21:18;;;;;;;10.65;4.07;;;;;;;8.64;31.28;100022.78;4274877;33;33150;-89
2023/03/17 09:23:46;;;;;;;8.45;3.55;;;;;;;9.05;29.78;100003.44;4288879;33;33567;-89
2023/03/17 09:26:13;;;;;;;10.52;3.87;;;;;;;8.90;29.76;100010.72;4287404;33;33735;-88
2023/03/17 09:28:41;;;;;;;8.13;3.70;;;;;;;8.71;29.13;100004.94;4288753;33;33607;-89
2023/03/17 09:31:11;;;;;;;8.40;3.58;;;;;;;8.78;27.92;100006.87;4288505;33;34174;-89
2023/03/17 09:33:39;;;;;;;7.10;3.30;;;;;;;9.20;28.19;99998.75;4287996;33;33969;-89
2023/03/17 09:36:09;;;;;;;11.90;3.25;;;;;;;9.19;26.86;99998.72;4275178;33;34204;-89
2023/03/17 09:38:37;;;;;;;9.15;3.15;;;;;;;9.70;27.91;100007.22;4288446;33;34164;-90
2023/03/17 09:41:31;;;;;;;11.48;3.25;;;;;;;9.52;27.98;99988.53;4288180;33;32830;-89
2023/03/17 09:44:14;;;;;;;9.82;3.55;;;;;;;9.62;27.78;99995.75;4268038;33;33937;-89
2023/03/17 09:47:01;;;;;;;8.02;2.95;;;;;;;9.95;27.98;99997.56;4274780;33;34273;-89
2023/03/17 09:49:43;;;;;;;7.87;3.40;;;;;;;9.40;28.55;99990.75;4287855;33;34909;-89
2023/03/17 09:52:17;;;;;;;7.07;3.17;;;;;;;9.13;28.89;99988.16;4275552;33;33783;-90
2023/03/17 09:54:48;;;;;;;11.10;3.30;;;;;;;9.17;28.71;99990.94;4275039;33;33527;-89
2023/03/17 09:57:28;;;;;;;8.82;3.33;;;;;;;9.51;28.49;99984.19;4288044;33;35023;-89
2023/03/17 10:00:05;;;;;;;8.25;3.92;;;;;;;9.38;28.16;99984.66;4275033;33;34581;-89
2023/03/17 10:02:36;;;;;;;9.88;3.78;;;;;;;9.63;28.03;99975.91;4275362;33;33160;-89
2023/03/17 10:05:20;;;;;;;9.80;3.45;;;;;;;9.78;27.00;99978.06;4288386;33;34506;-89
2023/03/17 10:08:28;;;;;;;10.13;3.20;;;;;;;9.68;27.75;99987.28;4275460;33;34257;-88
2023/03/17 10:11:14;;;;;;;7.47;3.58;;;;;;;9.46;28.27;99983.16;4275389;33;33971;-89
2023/03/17 10:14:01;;;;;;;11.45;3.90;;;;;;;9.39;27.42;99987.28;4274981;33;33948;-89
2023/03/17 10:16:41;;;;;;;7.47;3.45;;;;;;;9.57;26.75;99980.91;4288055;33;33777;-89
2023/03/17 10:19:20;;;;;;;9.45;3.45;;;;;;;10.22;27.24;99981.88;4288266;33;33905;-89
2023/03/17 10:21:52;;;;;;;12.50;3.72;;;;;;;10.42;26.09;99965.22;4275078;33;34926;-89
2023/03/17 10:24:20;;;;;;;11.27;3.55;;;;;;;10.62;26.79;99970.03;4274701;33;34350;-89
2023/03/17 10:26:49;;;;;;;9.45;3.50;;;;;;;9.81;26.83;99970.37;4287910;33;34552;-89
2023/03/17 10:29:21;;;;;;;8.27;3.67;;;;;;;9.82;26.55;99956.63;4288349;33;34204;-89
2023/03/17 10:31:50;;;;;;;9.65;3.65;;;;;;;10.21;26.61;99960.28;4274768;33;33853;-89
2023/03/17 10:34:32;;;;;;;8.70;3.95;;;;;;;10.12;26.23;99957.47;4287937;33;34286;-89
2023/03/17 10:37:05;;;;;;;7.60;3.62;;;;;;;10.11;26.90;99953.09;4287893;33;33734;-89
2023/03/17 10:39:41;;;;;;;9.30;3.72;;;;;;;10.29;25.63;99949.28;4274989;33;34701;-89
2023/03/17 10:42:14;;;;;;;10.88;3.67;;;;;;;9.93;26.32;99940.53;4274770;33;34891;-90
2023/03/17 10:44:53;;;;;;;8.48;4.15;;;;;;;10.05;26.36;99946.88;4274933;33;33671;-89
2023/03/17 10:47:33;;;;;;;7.90;3.72;;;;;;;10.02;26.26;99954.56;4287608;33;33775;-89
2023/03/17 10:50:24;;;;;;;8.55;3.45;;;;;;;9.73;26.12;99947.72;4274677;33;33393;-88
2023/03/17 10:52:58;;;;;;;9.57;4.07;;;;;;;9.52;26.53;99939.34;4287615;33;33906;-89
2023/03/17 10:55:33;;;;;;;11.85;3.90;;;;;;;9.55;26.65;99942.03;4287751;33;33356;-89
2023/03/17 10:58:14;;;;;;;8.60;4.05;;;;;;;10.29;26.83;99938.91;4287544;33;33997;-89
2023/03/17 11:00:50;;;;;;;8.57;4.18;;;;;;;10.05;26.48;99937.41;4260509;33;35243;-88
2023/03/17 11:03:24;;;;;;;12.55;3.85;;;;;;;9.93;25.81;99937.94;4273333;33;33961;-89
2023/03/17 11:06:03;;;;;;;14.43;5.82;;;;;;;9.84;26.55;99929.91;4273574;33;33525;-89
2023/03/17 11:08:34;;;;;;;7.75;3.72;;;;;;;10.26;26.29;99918.09;4273198;33;34094;-88
2023/03/17 11:11:06;;;;;;;7.47;3.85;;;;;;;10.30;26.25;99915.63;4273342;33;34187;-90
2023/03/17 11:13:34;;;;;;;10.35;3.60;;;;;;;10.82;25.92;99903.06;4272320;33;33800;-89
2023/03/17 11:16:20;;;;;;;10.25;3.97;;;;;;;11.28;26.25;99901.50;4273412;33;33937;-89
2023/03/17 11:18:52;;;;;;;7.00;3.60;;;;;;;10.86;25.85;99892.78;4272263;33;33547;-88
2023/03/17 11:21:28;;;;;;;9.15;3.45;;;;;;;10.79;26.35;99908.19;4272114;33;33922;-89
2023/03/17 11:23:55;;;;;;;12.37;4.03;;;;;;;11.06;25.59;99901.06;4282298;33;34101;-87
2023/03/17 11:26:42;;;;;;;10.40;4.12;;;;;;;10.76;26.01;99900.31;4274325;33;32975;-89
2023/03/17 11:29:23;;;;;;;;;;;;;;;10.82;25.68;99905.66;4287895;33;33737;-89
2023/03/17 11:31:58;;;;;;;13.68;4.53;;;;;;;10.45;26.13;99904.75;4273771;33;35128;-88
2023/03/17 11:34:44;;;;;;;12.07;3.92;;;;;;;10.95;26.57;99899.94;4286327;33;33962;-89
2023/03/17 11:37:43;;;;;;;10.18;4.35;;;;;;;11.49;26.71;99895.91;4274365;33;32905;-90
2023/03/17 11:40:48;;;;;;;12.52;3.97;;;;;;;11.26;25.58;99887.63;4287524;33;33671;-89
2023/03/17 11:43:46;;;;;;;12.25;4.15;;;;;;;11.40;25.50;99881.91;4287497;33;34157;-89
2023/03/17 11:46:40;;;;;;;9.57;3.92;;;;;;;11.60;26.35;99869.31;4287316;33;33809;-90
2023/03/17 11:49:17;;;;;;;8.65;4.00;;;;;;;11.66;25.61;99859.03;4274419;33;34267;-89
2023/03/17 11:51:55;;;;;;;11.27;3.72;;;;;;;11.15;24.96;99869.22;4274559;33;33753;-89